sensor_id;sensor_type;location;lat;lon;timestamp;P1;durP1;ratioP1;P2;durP2;ratioP2
6141;SDS011;71289;51.552;6.210;2023-12-14T00:01:30;32.40;;;13.47;;
6141;SDS011;71289;51.552;6.210;2023-12-14T00:03:55;26.53;;;10.60;;
6141;SDS011;71289;51.552;6.210;2023-12-14T00:06:21;26.03;;;11.77;;
6141;SDS011;71289;51.552;6.210;2023-12-14T00:08:46;27.63;;;11.73;;
6141;SDS011;71289;51.552;6.210;2023-12-14T00:11:12;28.37;;;12.10;;
6141;SDS011;71289;51.552;6.210;2023-12-14T00:13:38;37.17;;;16.20;;
6141;SDS011;71289;51.552;6.210;2023-12-14T00:16:03;28.87;;;12.20;;
6141;SDS011;71289;51.552;6.210;2023-12-14T00:18:30;29.93;;;11.70;;
6141;SDS011;71289;51.552;6.210;2023-12-14T00:20:56;28.87;;;11.77;;
6141;SDS011;71289;51.552;6.210;2023-12-14T00:23:21;30.50;;;13.40;;
6141;SDS011;71289;51.552;6.210;2023-12-14T00:25:48;27.10;;;12.30;;
6141;SDS011;71289;51.552;6.210;2023-12-14T00:28:13;33.37;;;12.97;;
6141;SDS011;71289;51.552;6.210;2023-12-14T00:30:39;26.27;;;13.07;;
6141;SDS011;71289;51.552;6.210;2023-12-14T00:33:04;29.37;;;12.53;;
6141;SDS011;71289;51.552;6.210;2023-12-14T00:35:30;25.83;;;12.20;;
6141;SDS011;71289;51.552;6.210;2023-12-14T00:37:55;37.07;;;14.27;;
6141;SDS011;71289;51.552;6.210;2023-12-14T00:40:21;32.33;;;16.20;;
6141;SDS011;71289;51.552;6.210;2023-12-14T00:42:46;32.10;;;13.03;;
6141;SDS011;71289;51.552;6.210;2023-12-14T00:45:12;34.87;;;13.67;;
6141;SDS011;71289;51.552;6.210;2023-12-14T00:47:38;32.40;;;14.83;;
6141;SDS011;71289;51.552;6.210;2023-12-14T00:50:03;29.60;;;12.53;;
6141;SDS011;71289;51.552;6.210;2023-12-14T00:52:29;25.27;;;11.87;;
6141;SDS011;71289;51.552;6.210;2023-12-14T00:54:55;26.70;;;11.03;;
6141;SDS011;71289;51.552;6.210;2023-12-14T00:57:21;31.53;;;14.20;;
6141;SDS011;71289;51.552;6.210;2023-12-14T00:59:46;31.73;;;14.17;;
6141;SDS011;71289;51.552;6.210;2023-12-14T01:02:12;26.07;;;12.13;;
6141;SDS011;71289;51.552;6.210;2023-12-14T01:04:37;30.60;;;14.40;;
6141;SDS011;71289;51.552;6.210;2023-12-14T01:07:03;29.60;;;13.03;;
6141;SDS011;71289;51.552;6.210;2023-12-14T01:09:29;30.03;;;14.37;;
6141;SDS011;71289;51.552;6.210;2023-12-14T01:11:54;31.30;;;13.60;;
6141;SDS011;71289;51.552;6.210;2023-12-14T01:14:20;27.10;;;12.90;;
6141;SDS011;71289;51.552;6.210;2023-12-14T01:16:46;29.73;;;13.60;;
6141;SDS011;71289;51.552;6.210;2023-12-14T01:19:11;29.23;;;13.47;;
6141;SDS011;71289;51.552;6.210;2023-12-14T01:21:37;31.70;;;14.37;;
6141;SDS011;71289;51.552;6.210;2023-12-14T01:24:02;38.07;;;16.70;;
6141;SDS011;71289;51.552;6.210;2023-12-14T01:26:28;33.17;;;15.73;;
6141;SDS011;71289;51.552;6.210;2023-12-14T01:28:54;35.33;;;14.03;;
6141;SDS011;71289;51.552;6.210;2023-12-14T01:31:19;31.90;;;15.20;;
6141;SDS011;71289;51.552;6.210;2023-12-14T01:33:48;28.67;;;14.27;;
6141;SDS011;71289;51.552;6.210;2023-12-14T01:36:19;39.23;;;16.40;;
6141;SDS011;71289;51.552;6.210;2023-12-14T01:38:46;34.03;;;14.40;;
6141;SDS011;71289;51.552;6.210;2023-12-14T01:41:12;27.17;;;13.63;;
6141;SDS011;71289;51.552;6.210;2023-12-14T01:43:37;33.93;;;14.30;;
6141;SDS011;71289;51.552;6.210;2023-12-14T01:46:03;29.40;;;14.33;;
6141;SDS011;71289;51.552;6.210;2023-12-14T01:48:28;34.93;;;14.20;;
6141;SDS011;71289;51.552;6.210;2023-12-14T01:50:54;32.03;;;14.63;;
6141;SDS011;71289;51.552;6.210;2023-12-14T01:53:20;32.30;;;15.80;;
6141;SDS011;71289;51.552;6.210;2023-12-14T01:55:46;33.27;;;13.43;;
6141;SDS011;71289;51.552;6.210;2023-12-14T01:58:12;34.97;;;14.80;;
6141;SDS011;71289;51.552;6.210;2023-12-14T02:00:41;27.30;;;14.07;;
6141;SDS011;71289;51.552;6.210;2023-12-14T02:03:29;38.03;;;17.07;;
6141;SDS011;71289;51.552;6.210;2023-12-14T02:05:55;40.10;;;16.47;;
6141;SDS011;71289;51.552;6.210;2023-12-14T02:08:20;30.33;;;15.33;;
6141;SDS011;71289;51.552;6.210;2023-12-14T02:10:46;29.17;;;11.97;;
6141;SDS011;71289;51.552;6.210;2023-12-14T02:13:13;30.77;;;14.30;;
6141;SDS011;71289;51.552;6.210;2023-12-14T02:15:38;34.03;;;14.27;;
6141;SDS011;71289;51.552;6.210;2023-12-14T02:18:04;30.90;;;14.17;;
6141;SDS011;71289;51.552;6.210;2023-12-14T02:20:29;28.67;;;12.90;;
6141;SDS011;71289;51.552;6.210;2023-12-14T02:22:55;25.10;;;12.70;;
6141;SDS011;71289;51.552;6.210;2023-12-14T02:25:22;23.87;;;11.63;;
6141;SDS011;71289;51.552;6.210;2023-12-14T02:27:48;27.50;;;11.93;;
6141;SDS011;71289;51.552;6.210;2023-12-14T02:30:15;29.73;;;14.63;;
6141;SDS011;71289;51.552;6.210;2023-12-14T02:32:41;27.23;;;12.23;;
6141;SDS011;71289;51.552;6.210;2023-12-14T02:35:07;28.23;;;12.13;;
6141;SDS011;71289;51.552;6.210;2023-12-14T02:37:33;34.57;;;13.27;;
6141;SDS011;71289;51.552;6.210;2023-12-14T02:40:02;21.60;;;10.50;;
6141;SDS011;71289;51.552;6.210;2023-12-14T02:42:28;24.30;;;12.17;;
6141;SDS011;71289;51.552;6.210;2023-12-14T02:44:54;28.23;;;13.23;;
6141;SDS011;71289;51.552;6.210;2023-12-14T02:47:19;30.20;;;11.70;;
6141;SDS011;71289;51.552;6.210;2023-12-14T02:49:45;23.80;;;11.37;;
6141;SDS011;71289;51.552;6.210;2023-12-14T02:52:10;25.47;;;12.40;;
6141;SDS011;71289;51.552;6.210;2023-12-14T02:54:38;24.60;;;11.20;;
6141;SDS011;71289;51.552;6.210;2023-12-14T02:57:04;24.03;;;12.60;;
6141;SDS011;71289;51.552;6.210;2023-12-14T02:59:30;28.50;;;11.30;;
6141;SDS011;71289;51.552;6.210;2023-12-14T03:01:55;26.33;;;12.63;;
6141;SDS011;71289;51.552;6.210;2023-12-14T03:04:21;24.63;;;12.27;;
6141;SDS011;71289;51.552;6.210;2023-12-14T03:06:46;31.33;;;13.40;;
6141;SDS011;71289;51.552;6.210;2023-12-14T03:09:12;27.80;;;12.37;;
6141;SDS011;71289;51.552;6.210;2023-12-14T03:11:37;28.50;;;12.77;;
6141;SDS011;71289;51.552;6.210;2023-12-14T03:14:03;25.43;;;12.57;;
6141;SDS011;71289;51.552;6.210;2023-12-14T03:16:28;24.40;;;12.03;;
6141;SDS011;71289;51.552;6.210;2023-12-14T03:18:54;26.13;;;13.27;;
6141;SDS011;71289;51.552;6.210;2023-12-14T03:21:21;40.03;;;13.40;;
6141;SDS011;71289;51.552;6.210;2023-12-14T03:23:47;28.63;;;12.60;;
6141;SDS011;71289;51.552;6.210;2023-12-14T03:26:13;27.27;;;12.23;;
6141;SDS011;71289;51.552;6.210;2023-12-14T03:28:39;23.60;;;10.70;;
6141;SDS011;71289;51.552;6.210;2023-12-14T03:31:04;27.93;;;12.80;;
6141;SDS011;71289;51.552;6.210;2023-12-14T03:33:30;25.23;;;11.67;;
6141;SDS011;71289;51.552;6.210;2023-12-14T03:35:55;25.70;;;12.30;;
6141;SDS011;71289;51.552;6.210;2023-12-14T03:38:21;27.60;;;13.63;;
6141;SDS011;71289;51.552;6.210;2023-12-14T03:40:47;39.13;;;13.77;;
6141;SDS011;71289;51.552;6.210;2023-12-14T03:43:13;28.23;;;12.10;;
6141;SDS011;71289;51.552;6.210;2023-12-14T03:45:38;30.53;;;14.20;;
6141;SDS011;71289;51.552;6.210;2023-12-14T03:48:04;26.83;;;12.57;;
6141;SDS011;71289;51.552;6.210;2023-12-14T03:50:29;28.27;;;13.10;;
6141;SDS011;71289;51.552;6.210;2023-12-14T03:52:55;26.57;;;12.47;;
6141;SDS011;71289;51.552;6.210;2023-12-14T03:55:20;35.37;;;17.47;;
6141;SDS011;71289;51.552;6.210;2023-12-14T03:57:46;31.83;;;13.80;;
6141;SDS011;71289;51.552;6.210;2023-12-14T04:00:12;32.53;;;13.30;;
6141;SDS011;71289;51.552;6.210;2023-12-14T04:02:38;29.27;;;12.63;;
6141;SDS011;71289;51.552;6.210;2023-12-14T04:05:06;23.70;;;11.97;;
6141;SDS011;71289;51.552;6.210;2023-12-14T04:07:33;35.30;;;13.30;;
6141;SDS011;71289;51.552;6.210;2023-12-14T04:10:05;23.93;;;12.93;;
6141;SDS011;71289;51.552;6.210;2023-12-14T04:12:34;23.77;;;12.90;;
6141;SDS011;71289;51.552;6.210;2023-12-14T04:15:01;26.10;;;12.37;;
6141;SDS011;71289;51.552;6.210;2023-12-14T04:17:27;23.60;;;12.53;;
6141;SDS011;71289;51.552;6.210;2023-12-14T04:19:52;26.30;;;13.13;;
6141;SDS011;71289;51.552;6.210;2023-12-14T04:22:18;21.87;;;12.10;;
6141;SDS011;71289;51.552;6.210;2023-12-14T04:24:43;19.27;;;10.57;;
6141;SDS011;71289;51.552;6.210;2023-12-14T04:27:09;24.10;;;11.73;;
6141;SDS011;71289;51.552;6.210;2023-12-14T04:29:34;22.47;;;11.60;;
6141;SDS011;71289;51.552;6.210;2023-12-14T04:32:00;26.47;;;13.43;;
6141;SDS011;71289;51.552;6.210;2023-12-14T04:34:25;22.27;;;12.23;;
6141;SDS011;71289;51.552;6.210;2023-12-14T04:36:51;29.90;;;14.63;;
6141;SDS011;71289;51.552;6.210;2023-12-14T04:39:17;28.20;;;14.40;;
6141;SDS011;71289;51.552;6.210;2023-12-14T04:41:43;28.53;;;12.13;;
6141;SDS011;71289;51.552;6.210;2023-12-14T04:44:09;27.33;;;11.93;;
6141;SDS011;71289;51.552;6.210;2023-12-14T04:46:35;27.60;;;12.83;;
6141;SDS011;71289;51.552;6.210;2023-12-14T04:49:01;27.13;;;13.67;;
6141;SDS011;71289;51.552;6.210;2023-12-14T04:51:26;31.93;;;15.10;;
6141;SDS011;71289;51.552;6.210;2023-12-14T04:53:52;25.40;;;13.80;;
6141;SDS011;71289;51.552;6.210;2023-12-14T04:56:18;26.80;;;12.07;;
6141;SDS011;71289;51.552;6.210;2023-12-14T04:58:43;30.53;;;13.47;;
6141;SDS011;71289;51.552;6.210;2023-12-14T05:01:09;26.17;;;12.77;;
6141;SDS011;71289;51.552;6.210;2023-12-14T05:03:34;32.83;;;14.97;;
6141;SDS011;71289;51.552;6.210;2023-12-14T05:06:00;28.77;;;13.20;;
6141;SDS011;71289;51.552;6.210;2023-12-14T05:08:26;24.23;;;13.40;;
6141;SDS011;71289;51.552;6.210;2023-12-14T05:10:52;32.30;;;14.70;;
6141;SDS011;71289;51.552;6.210;2023-12-14T05:13:17;23.63;;;12.80;;
6141;SDS011;71289;51.552;6.210;2023-12-14T05:15:43;28.33;;;13.20;;
6141;SDS011;71289;51.552;6.210;2023-12-14T05:18:09;27.30;;;14.07;;
6141;SDS011;71289;51.552;6.210;2023-12-14T05:20:34;23.97;;;12.37;;
6141;SDS011;71289;51.552;6.210;2023-12-14T05:23:00;24.90;;;13.27;;
6141;SDS011;71289;51.552;6.210;2023-12-14T05:25:26;21.93;;;10.30;;
6141;SDS011;71289;51.552;6.210;2023-12-14T05:27:52;27.50;;;13.77;;
6141;SDS011;71289;51.552;6.210;2023-12-14T05:30:17;24.83;;;12.10;;
6141;SDS011;71289;51.552;6.210;2023-12-14T05:32:43;31.37;;;12.20;;
6141;SDS011;71289;51.552;6.210;2023-12-14T05:35:09;27.87;;;13.63;;
6141;SDS011;71289;51.552;6.210;2023-12-14T05:37:35;20.83;;;12.07;;
6141;SDS011;71289;51.552;6.210;2023-12-14T05:40:01;22.53;;;12.50;;
6141;SDS011;71289;51.552;6.210;2023-12-14T05:42:27;16.47;;;10.73;;
6141;SDS011;71289;51.552;6.210;2023-12-14T05:44:53;25.93;;;11.90;;
6141;SDS011;71289;51.552;6.210;2023-12-14T05:47:19;17.87;;;9.93;;
6141;SDS011;71289;51.552;6.210;2023-12-14T05:49:44;19.07;;;11.70;;
6141;SDS011;71289;51.552;6.210;2023-12-14T05:52:10;22.17;;;11.67;;
6141;SDS011;71289;51.552;6.210;2023-12-14T05:54:37;25.77;;;12.63;;
6141;SDS011;71289;51.552;6.210;2023-12-14T05:57:03;21.13;;;11.90;;
6141;SDS011;71289;51.552;6.210;2023-12-14T05:59:29;23.20;;;12.97;;
6141;SDS011;71289;51.552;6.210;2023-12-14T06:01:58;28.67;;;12.97;;
6141;SDS011;71289;51.552;6.210;2023-12-14T06:04:25;21.93;;;12.00;;
6141;SDS011;71289;51.552;6.210;2023-12-14T06:06:51;19.80;;;10.23;;
6141;SDS011;71289;51.552;6.210;2023-12-14T06:09:17;23.67;;;11.37;;
6141;SDS011;71289;51.552;6.210;2023-12-14T06:11:47;24.13;;;12.40;;
6141;SDS011;71289;51.552;6.210;2023-12-14T06:14:12;23.33;;;10.60;;
6141;SDS011;71289;51.552;6.210;2023-12-14T06:16:38;21.53;;;11.57;;
6141;SDS011;71289;51.552;6.210;2023-12-14T06:19:04;14.53;;;9.97;;
6141;SDS011;71289;51.552;6.210;2023-12-14T06:21:29;19.60;;;12.00;;
6141;SDS011;71289;51.552;6.210;2023-12-14T06:23:55;21.47;;;10.93;;
6141;SDS011;71289;51.552;6.210;2023-12-14T06:26:22;19.87;;;10.60;;
6141;SDS011;71289;51.552;6.210;2023-12-14T06:28:47;20.07;;;12.30;;
6141;SDS011;71289;51.552;6.210;2023-12-14T06:31:13;21.43;;;12.60;;
6141;SDS011;71289;51.552;6.210;2023-12-14T06:33:39;24.83;;;12.70;;
6141;SDS011;71289;51.552;6.210;2023-12-14T06:36:06;23.70;;;12.27;;
6141;SDS011;71289;51.552;6.210;2023-12-14T06:38:33;19.40;;;10.70;;
6141;SDS011;71289;51.552;6.210;2023-12-14T06:40:58;22.60;;;12.90;;
6141;SDS011;71289;51.552;6.210;2023-12-14T06:43:24;22.80;;;12.97;;
6141;SDS011;71289;51.552;6.210;2023-12-14T06:45:49;24.00;;;11.47;;
6141;SDS011;71289;51.552;6.210;2023-12-14T06:48:15;21.17;;;13.37;;
6141;SDS011;71289;51.552;6.210;2023-12-14T06:50:40;18.50;;;11.60;;
6141;SDS011;71289;51.552;6.210;2023-12-14T06:53:06;19.50;;;10.93;;
6141;SDS011;71289;51.552;6.210;2023-12-14T06:55:31;20.70;;;11.93;;
6141;SDS011;71289;51.552;6.210;2023-12-14T06:57:57;22.93;;;12.93;;
6141;SDS011;71289;51.552;6.210;2023-12-14T07:00:22;24.77;;;13.83;;
6141;SDS011;71289;51.552;6.210;2023-12-14T07:02:48;20.40;;;10.80;;
6141;SDS011;71289;51.552;6.210;2023-12-14T07:05:13;18.80;;;10.30;;
6141;SDS011;71289;51.552;6.210;2023-12-14T07:07:39;18.97;;;11.07;;
6141;SDS011;71289;51.552;6.210;2023-12-14T07:10:05;21.50;;;12.40;;
6141;SDS011;71289;51.552;6.210;2023-12-14T07:12:31;20.57;;;11.07;;
6141;SDS011;71289;51.552;6.210;2023-12-14T07:14:56;17.40;;;10.13;;
6141;SDS011;71289;51.552;6.210;2023-12-14T07:17:22;24.90;;;13.50;;
6141;SDS011;71289;51.552;6.210;2023-12-14T07:19:47;13.47;;;9.43;;
6141;SDS011;71289;51.552;6.210;2023-12-14T07:22:13;17.27;;;8.93;;
6141;SDS011;71289;51.552;6.210;2023-12-14T07:24:38;19.13;;;10.33;;
6141;SDS011;71289;51.552;6.210;2023-12-14T07:27:04;15.50;;;10.00;;
6141;SDS011;71289;51.552;6.210;2023-12-14T07:29:29;20.30;;;10.63;;
6141;SDS011;71289;51.552;6.210;2023-12-14T07:31:55;20.70;;;10.17;;
6141;SDS011;71289;51.552;6.210;2023-12-14T07:34:20;20.60;;;11.00;;
6141;SDS011;71289;51.552;6.210;2023-12-14T07:36:46;17.40;;;9.27;;
6141;SDS011;71289;51.552;6.210;2023-12-14T07:39:12;19.70;;;10.63;;
6141;SDS011;71289;51.552;6.210;2023-12-14T07:41:37;17.73;;;9.87;;
6141;SDS011;71289;51.552;6.210;2023-12-14T07:44:03;17.30;;;10.37;;
6141;SDS011;71289;51.552;6.210;2023-12-14T07:46:29;20.07;;;10.80;;
6141;SDS011;71289;51.552;6.210;2023-12-14T07:48:55;18.13;;;11.77;;
6141;SDS011;71289;51.552;6.210;2023-12-14T07:51:20;16.60;;;10.00;;
6141;SDS011;71289;51.552;6.210;2023-12-14T07:53:46;16.80;;;10.63;;
6141;SDS011;71289;51.552;6.210;2023-12-14T07:56:11;17.40;;;10.23;;
6141;SDS011;71289;51.552;6.210;2023-12-14T07:58:37;19.07;;;10.40;;
6141;SDS011;71289;51.552;6.210;2023-12-14T08:01:03;21.90;;;11.20;;
6141;SDS011;71289;51.552;6.210;2023-12-14T08:03:28;18.20;;;11.27;;
6141;SDS011;71289;51.552;6.210;2023-12-14T08:05:54;20.60;;;11.17;;
6141;SDS011;71289;51.552;6.210;2023-12-14T08:08:19;19.93;;;10.50;;
6141;SDS011;71289;51.552;6.210;2023-12-14T08:10:45;19.33;;;10.30;;
6141;SDS011;71289;51.552;6.210;2023-12-14T08:13:10;23.87;;;12.87;;
6141;SDS011;71289;51.552;6.210;2023-12-14T08:15:36;17.47;;;9.53;;
6141;SDS011;71289;51.552;6.210;2023-12-14T08:18:01;15.43;;;10.23;;
6141;SDS011;71289;51.552;6.210;2023-12-14T08:20:27;24.70;;;12.40;;
6141;SDS011;71289;51.552;6.210;2023-12-14T08:22:52;18.20;;;9.77;;
6141;SDS011;71289;51.552;6.210;2023-12-14T08:25:18;20.00;;;10.60;;
6141;SDS011;71289;51.552;6.210;2023-12-14T08:27:44;24.90;;;10.40;;
6141;SDS011;71289;51.552;6.210;2023-12-14T08:30:10;16.10;;;10.77;;
6141;SDS011;71289;51.552;6.210;2023-12-14T08:32:36;16.87;;;10.30;;
6141;SDS011;71289;51.552;6.210;2023-12-14T08:35:01;16.07;;;9.50;;
6141;SDS011;71289;51.552;6.210;2023-12-14T08:37:27;17.07;;;11.10;;
6141;SDS011;71289;51.552;6.210;2023-12-14T08:39:53;12.83;;;8.70;;
6141;SDS011;71289;51.552;6.210;2023-12-14T08:42:20;18.53;;;9.57;;
6141;SDS011;71289;51.552;6.210;2023-12-14T08:44:46;14.00;;;7.97;;
6141;SDS011;71289;51.552;6.210;2023-12-14T08:47:11;18.67;;;10.77;;
6141;SDS011;71289;51.552;6.210;2023-12-14T08:49:37;16.20;;;9.43;;
6141;SDS011;71289;51.552;6.210;2023-12-14T08:52:03;14.57;;;8.40;;
6141;SDS011;71289;51.552;6.210;2023-12-14T08:54:29;17.00;;;9.43;;
6141;SDS011;71289;51.552;6.210;2023-12-14T08:56:55;16.90;;;8.87;;
6141;SDS011;71289;51.552;6.210;2023-12-14T08:59:20;14.87;;;8.90;;
6141;SDS011;71289;51.552;6.210;2023-12-14T09:01:46;14.93;;;8.13;;
6141;SDS011;71289;51.552;6.210;2023-12-14T09:04:11;15.00;;;9.00;;
6141;SDS011;71289;51.552;6.210;2023-12-14T09:06:38;14.40;;;8.27;;
6141;SDS011;71289;51.552;6.210;2023-12-14T09:09:07;13.90;;;8.00;;
6141;SDS011;71289;51.552;6.210;2023-12-14T09:11:32;14.47;;;8.90;;
6141;SDS011;71289;51.552;6.210;2023-12-14T09:14:00;14.97;;;8.60;;
6141;SDS011;71289;51.552;6.210;2023-12-14T09:16:25;16.47;;;7.97;;
6141;SDS011;71289;51.552;6.210;2023-12-14T09:18:51;15.20;;;7.83;;
6141;SDS011;71289;51.552;6.210;2023-12-14T09:21:16;14.67;;;7.80;;
6141;SDS011;71289;51.552;6.210;2023-12-14T09:23:42;14.80;;;7.67;;
6141;SDS011;71289;51.552;6.210;2023-12-14T09:26:07;14.10;;;7.57;;
6141;SDS011;71289;51.552;6.210;2023-12-14T09:28:33;15.43;;;8.00;;
6141;SDS011;71289;51.552;6.210;2023-12-14T09:30:58;14.80;;;7.20;;
6141;SDS011;71289;51.552;6.210;2023-12-14T09:33:24;11.70;;;6.60;;
6141;SDS011;71289;51.552;6.210;2023-12-14T09:35:49;11.23;;;6.87;;
6141;SDS011;71289;51.552;6.210;2023-12-14T09:38:15;10.10;;;5.93;;
6141;SDS011;71289;51.552;6.210;2023-12-14T09:40:44;10.60;;;6.23;;
6141;SDS011;71289;51.552;6.210;2023-12-14T09:43:10;8.10;;;5.47;;
6141;SDS011;71289;51.552;6.210;2023-12-14T09:45:36;10.10;;;6.17;;
6141;SDS011;71289;51.552;6.210;2023-12-14T09:48:06;9.20;;;5.63;;
6141;SDS011;71289;51.552;6.210;2023-12-14T09:50:34;17.17;;;6.80;;
6141;SDS011;71289;51.552;6.210;2023-12-14T09:53:00;11.97;;;6.63;;
6141;SDS011;71289;51.552;6.210;2023-12-14T09:55:26;14.73;;;7.60;;
6141;SDS011;71289;51.552;6.210;2023-12-14T09:57:51;9.03;;;6.33;;
6141;SDS011;71289;51.552;6.210;2023-12-14T10:00:32;11.73;;;6.40;;
6141;SDS011;71289;51.552;6.210;2023-12-14T10:03:22;12.93;;;6.13;;
6141;SDS011;71289;51.552;6.210;2023-12-14T10:05:52;15.23;;;6.63;;
6141;SDS011;71289;51.552;6.210;2023-12-14T10:08:22;13.30;;;6.40;;
6141;SDS011;71289;51.552;6.210;2023-12-14T10:10:49;12.57;;;6.63;;
6141;SDS011;71289;51.552;6.210;2023-12-14T10:13:17;8.60;;;5.67;;
6141;SDS011;71289;51.552;6.210;2023-12-14T10:15:44;13.70;;;7.93;;
6141;SDS011;71289;51.552;6.210;2023-12-14T10:18:11;12.60;;;6.30;;
6141;SDS011;71289;51.552;6.210;2023-12-14T10:20:42;15.57;;;7.50;;
6141;SDS011;71289;51.552;6.210;2023-12-14T10:23:10;12.03;;;6.53;;
6141;SDS011;71289;51.552;6.210;2023-12-14T10:25:35;11.10;;;6.87;;
6141;SDS011;71289;51.552;6.210;2023-12-14T10:28:01;8.33;;;6.53;;
6141;SDS011;71289;51.552;6.210;2023-12-14T10:30:28;7.40;;;5.43;;
6141;SDS011;71289;51.552;6.210;2023-12-14T10:32:54;10.17;;;5.93;;
6141;SDS011;71289;51.552;6.210;2023-12-14T10:35:19;12.27;;;5.63;;
6141;SDS011;71289;51.552;6.210;2023-12-14T10:37:47;11.63;;;5.60;;
6141;SDS011;71289;51.552;6.210;2023-12-14T10:40:16;7.50;;;4.20;;
6141;SDS011;71289;51.552;6.210;2023-12-14T10:42:42;12.27;;;6.13;;
6141;SDS011;71289;51.552;6.210;2023-12-14T10:45:09;8.50;;;5.50;;
6141;SDS011;71289;51.552;6.210;2023-12-14T10:47:37;8.50;;;5.33;;
6141;SDS011;71289;51.552;6.210;2023-12-14T10:50:07;7.30;;;4.40;;
6141;SDS011;71289;51.552;6.210;2023-12-14T10:52:36;7.07;;;4.90;;
6141;SDS011;71289;51.552;6.210;2023-12-14T10:55:05;6.43;;;4.43;;
6141;SDS011;71289;51.552;6.210;2023-12-14T10:57:33;8.80;;;5.80;;
6141;SDS011;71289;51.552;6.210;2023-12-14T10:59:59;7.13;;;4.63;;
6141;SDS011;71289;51.552;6.210;2023-12-14T11:02:26;7.80;;;5.67;;
6141;SDS011;71289;51.552;6.210;2023-12-14T11:04:56;8.60;;;4.57;;
6141;SDS011;71289;51.552;6.210;2023-12-14T11:10:08;7.10;;;4.87;;
6141;SDS011;71289;51.552;6.210;2023-12-14T11:12:34;8.33;;;5.47;;
6141;SDS011;71289;51.552;6.210;2023-12-14T11:15:00;10.80;;;5.90;;
6141;SDS011;71289;51.552;6.210;2023-12-14T11:17:25;6.80;;;4.97;;
6141;SDS011;71289;51.552;6.210;2023-12-14T11:19:51;9.20;;;5.30;;
6141;SDS011;71289;51.552;6.210;2023-12-14T11:22:26;7.67;;;5.40;;
6141;SDS011;71289;51.552;6.210;2023-12-14T11:24:55;8.33;;;5.10;;
6141;SDS011;71289;51.552;6.210;2023-12-14T11:27:28;9.10;;;5.10;;
6141;SDS011;71289;51.552;6.210;2023-12-14T11:29:55;8.60;;;5.47;;
6141;SDS011;71289;51.552;6.210;2023-12-14T11:32:22;6.37;;;4.40;;
6141;SDS011;71289;51.552;6.210;2023-12-14T11:34:50;9.40;;;4.80;;
6141;SDS011;71289;51.552;6.210;2023-12-14T11:37:15;6.27;;;4.70;;
6141;SDS011;71289;51.552;6.210;2023-12-14T11:39:41;6.73;;;4.40;;
6141;SDS011;71289;51.552;6.210;2023-12-14T11:42:07;7.13;;;5.20;;
6141;SDS011;71289;51.552;6.210;2023-12-14T11:44:35;8.33;;;4.90;;
6141;SDS011;71289;51.552;6.210;2023-12-14T11:47:02;7.77;;;5.20;;
6141;SDS011;71289;51.552;6.210;2023-12-14T11:49:27;6.30;;;4.63;;
6141;SDS011;71289;51.552;6.210;2023-12-14T11:51:56;8.23;;;4.47;;
6141;SDS011;71289;51.552;6.210;2023-12-14T11:54:22;7.63;;;4.80;;
6141;SDS011;71289;51.552;6.210;2023-12-14T11:56:48;7.80;;;4.80;;
6141;SDS011;71289;51.552;6.210;2023-12-14T11:59:14;5.73;;;4.30;;
6141;SDS011;71289;51.552;6.210;2023-12-14T12:01:53;12.47;;;5.93;;
6141;SDS011;71289;51.552;6.210;2023-12-14T12:04:20;6.00;;;4.87;;
6141;SDS011;71289;51.552;6.210;2023-12-14T12:06:45;7.57;;;4.77;;
6141;SDS011;71289;51.552;6.210;2023-12-14T12:09:12;18.77;;;5.27;;
6141;SDS011;71289;51.552;6.210;2023-12-14T12:11:38;7.80;;;5.70;;
6141;SDS011;71289;51.552;6.210;2023-12-14T12:14:04;7.47;;;4.53;;
6141;SDS011;71289;51.552;6.210;2023-12-14T12:16:30;8.43;;;5.00;;
6141;SDS011;71289;51.552;6.210;2023-12-14T12:18:56;10.07;;;5.30;;
6141;SDS011;71289;51.552;6.210;2023-12-14T12:21:21;6.93;;;4.90;;
6141;SDS011;71289;51.552;6.210;2023-12-14T12:23:47;7.40;;;5.60;;
6141;SDS011;71289;51.552;6.210;2023-12-14T12:26:12;6.10;;;4.93;;
6141;SDS011;71289;51.552;6.210;2023-12-14T12:28:39;9.20;;;6.10;;
6141;SDS011;71289;51.552;6.210;2023-12-14T12:31:04;7.57;;;5.00;;
6141;SDS011;71289;51.552;6.210;2023-12-14T12:33:30;8.13;;;5.50;;
6141;SDS011;71289;51.552;6.210;2023-12-14T12:36:02;9.87;;;5.43;;
6141;SDS011;71289;51.552;6.210;2023-12-14T12:38:27;8.23;;;5.43;;
6141;SDS011;71289;51.552;6.210;2023-12-14T12:40:53;7.87;;;4.60;;
6141;SDS011;71289;51.552;6.210;2023-12-14T12:43:20;5.00;;;3.87;;
6141;SDS011;71289;51.552;6.210;2023-12-14T12:45:46;9.67;;;5.43;;
6141;SDS011;71289;51.552;6.210;2023-12-14T12:48:11;8.30;;;4.77;;
6141;SDS011;71289;51.552;6.210;2023-12-14T12:50:38;7.40;;;4.37;;
6141;SDS011;71289;51.552;6.210;2023-12-14T12:53:03;11.20;;;5.50;;
6141;SDS011;71289;51.552;6.210;2023-12-14T12:55:29;8.77;;;5.23;;
6141;SDS011;71289;51.552;6.210;2023-12-14T12:57:54;9.70;;;5.70;;
6141;SDS011;71289;51.552;6.210;2023-12-14T13:00:20;9.90;;;6.33;;
6141;SDS011;71289;51.552;6.210;2023-12-14T13:02:46;12.10;;;5.90;;
6141;SDS011;71289;51.552;6.210;2023-12-14T13:05:11;7.93;;;5.17;;
6141;SDS011;71289;51.552;6.210;2023-12-14T13:07:37;6.37;;;5.23;;
6141;SDS011;71289;51.552;6.210;2023-12-14T13:10:03;8.83;;;5.27;;
6141;SDS011;71289;51.552;6.210;2023-12-14T13:12:33;9.90;;;5.70;;
6141;SDS011;71289;51.552;6.210;2023-12-14T13:14:59;6.03;;;4.40;;
6141;SDS011;71289;51.552;6.210;2023-12-14T13:17:25;6.33;;;4.63;;
6141;SDS011;71289;51.552;6.210;2023-12-14T13:19:51;7.30;;;4.27;;
6141;SDS011;71289;51.552;6.210;2023-12-14T13:22:16;11.03;;;5.30;;
6141;SDS011;71289;51.552;6.210;2023-12-14T13:24:42;9.73;;;5.03;;
6141;SDS011;71289;51.552;6.210;2023-12-14T13:27:08;7.27;;;5.17;;
6141;SDS011;71289;51.552;6.210;2023-12-14T13:29:33;7.70;;;5.70;;
6141;SDS011;71289;51.552;6.210;2023-12-14T13:32:00;8.30;;;5.50;;
6141;SDS011;71289;51.552;6.210;2023-12-14T13:34:26;10.73;;;4.97;;
6141;SDS011;71289;51.552;6.210;2023-12-14T13:36:53;7.87;;;5.53;;
6141;SDS011;71289;51.552;6.210;2023-12-14T13:39:21;7.07;;;5.93;;
6141;SDS011;71289;51.552;6.210;2023-12-14T13:41:48;8.27;;;5.20;;
6141;SDS011;71289;51.552;6.210;2023-12-14T13:44:13;11.03;;;6.37;;
6141;SDS011;71289;51.552;6.210;2023-12-14T13:46:39;10.70;;;6.00;;
6141;SDS011;71289;51.552;6.210;2023-12-14T13:49:05;10.20;;;6.60;;
6141;SDS011;71289;51.552;6.210;2023-12-14T13:51:30;7.20;;;4.87;;
6141;SDS011;71289;51.552;6.210;2023-12-14T13:53:56;10.00;;;6.47;;
6141;SDS011;71289;51.552;6.210;2023-12-14T13:56:21;8.00;;;5.93;;
6141;SDS011;71289;51.552;6.210;2023-12-14T13:58:47;8.90;;;5.43;;
6141;SDS011;71289;51.552;6.210;2023-12-14T14:01:13;7.90;;;5.70;;
6141;SDS011;71289;51.552;6.210;2023-12-14T14:03:40;11.20;;;7.07;;
6141;SDS011;71289;51.552;6.210;2023-12-14T14:06:06;10.13;;;6.60;;
6141;SDS011;71289;51.552;6.210;2023-12-14T14:08:32;10.20;;;5.93;;
6141;SDS011;71289;51.552;6.210;2023-12-14T14:10:58;12.27;;;7.30;;
6141;SDS011;71289;51.552;6.210;2023-12-14T14:13:24;8.93;;;6.30;;
6141;SDS011;71289;51.552;6.210;2023-12-14T14:15:50;9.47;;;6.57;;
6141;SDS011;71289;51.552;6.210;2023-12-14T14:18:15;9.70;;;5.60;;
6141;SDS011;71289;51.552;6.210;2023-12-14T14:20:41;10.30;;;6.03;;
6141;SDS011;71289;51.552;6.210;2023-12-14T14:23:07;9.70;;;6.23;;
6141;SDS011;71289;51.552;6.210;2023-12-14T14:25:32;11.53;;;5.83;;
6141;SDS011;71289;51.552;6.210;2023-12-14T14:27:58;10.03;;;6.00;;
6141;SDS011;71289;51.552;6.210;2023-12-14T14:30:24;9.03;;;5.87;;
6141;SDS011;71289;51.552;6.210;2023-12-14T14:32:50;11.50;;;7.17;;
6141;SDS011;71289;51.552;6.210;2023-12-14T14:35:15;8.23;;;6.43;;
6141;SDS011;71289;51.552;6.210;2023-12-14T14:37:41;10.47;;;6.30;;
6141;SDS011;71289;51.552;6.210;2023-12-14T14:40:10;9.30;;;5.77;;